F/V Oceanie — FVBW — position and weather

sailwx.info

Track history (hours):
 
Tides and Currents Weather Stations Pressure Air Temp Water Temp Dewpoint Dewpoint Depression Visibility Wind Speed Wind Dir Waves Ship Positions

F/V Oceanie

Last reported at 2014-Oct-23 02:29 UTC. Time now 2014-Oct-23 11:45 UTC.
Position N 47°33' W 003°25'.

Length 16 m.

Type: Fishing. MMSI: 228370000.

Date/timePositionNaut miles runAvg speedWind from/ knotsBaromVisibWave heightAir tempDewpointWater temp
2014-Oct-23 02:29N 47°33' W 003°25'8 8.7
2014-Oct-23 01:33N 47°41' W 003°22'1 1.1
2014-Oct-23 00:33N 47°42' W 003°22'8 8.3
2014-Oct-22 23:34N 47°35' W 003°28'3 0.1
2014-Oct-22 03:31N 47°32' W 003°26'9 9.0
2014-Oct-22 02:33N 47°41' W 003°22'  
2014-Oct-18 00:23N 47°44' W 003°22'0 0.0
2014-Oct-17 23:33N 47°44' W 003°22'3 2.8
2014-Oct-17 22:33N 47°41' W 003°22'11 0.3
2014-Oct-16 03:27N 47°30' W 003°23'7 8.4
2014-Oct-16 02:33N 47°37' W 003°22'7 6.6
2014-Oct-16 01:33N 47°44' W 003°22'3 3.1
2014-Oct-16 00:33N 47°41' W 003°22'21 3.4
2014-Oct-15 18:26N 47°20' W 003°24'5 0.4
2014-Oct-15 04:04N 47°25' W 003°23'4 8.5
2014-Oct-15 03:32N 47°30' W 003°23'8 8.6
2014-Oct-15 02:33N 47°38' W 003°22'5 5.4
2014-Oct-15 01:33N 47°44' W 003°22'7 6.9
2014-Oct-15 00:33N 47°37' W 003°23'15 1.2
2014-Oct-14 12:33N 47°27' W 003°39'10 1.1
2014-Oct-14 03:31N 47°36' W 003°34'6 6.3
2014-Oct-14 02:33N 47°40' W 003°27'5 5.0
2014-Oct-14 01:33N 47°44' W 003°22'5 4.9
2014-Oct-14 00:33N 47°39' W 003°22'8 8.5
2014-Oct-13 23:33N 47°30' W 003°22'10 0.6
2014-Oct-13 05:22N 47°35' W 003°35'7 8.1
2014-Oct-13 04:33N 47°40' W 003°29'  
Track history (hours):
 
Tides and Currents Weather Stations Pressure Air Temp Water Temp Dewpoint Dewpoint Depression Visibility Wind Speed Wind Dir Waves Ship Positions

F/V Oceanie

Last reported at 2014-Oct-23 02:29 UTC. Time now 2014-Oct-23 11:45 UTC.
Position N 47°33' W 003°25'.

Length 16 m.

Type: Fishing. MMSI: 228370000.

Date/timePositionNaut miles runAvg speedWind from/ knotsBaromVisibWave heightAir tempDewpointWater temp
2014-Oct-23 02:29N 47°33' W 003°25'8 8.7
2014-Oct-23 01:33N 47°41' W 003°22'1 1.1
2014-Oct-23 00:33N 47°42' W 003°22'8 8.3
2014-Oct-22 23:34N 47°35' W 003°28'3 0.1
2014-Oct-22 03:31N 47°32' W 003°26'9 9.0
2014-Oct-22 02:33N 47°41' W 003°22'  
2014-Oct-18 00:23N 47°44' W 003°22'0 0.0
2014-Oct-17 23:33N 47°44' W 003°22'3 2.8
2014-Oct-17 22:33N 47°41' W 003°22'11 0.3
2014-Oct-16 03:27N 47°30' W 003°23'7 8.4
2014-Oct-16 02:33N 47°37' W 003°22'7 6.6
2014-Oct-16 01:33N 47°44' W 003°22'3 3.1
2014-Oct-16 00:33N 47°41' W 003°22'21 3.4
2014-Oct-15 18:26N 47°20' W 003°24'5 0.4
2014-Oct-15 04:04N 47°25' W 003°23'4 8.5
2014-Oct-15 03:32N 47°30' W 003°23'8 8.6
2014-Oct-15 02:33N 47°38' W 003°22'5 5.4
2014-Oct-15 01:33N 47°44' W 003°22'7 6.9
2014-Oct-15 00:33N 47°37' W 003°23'15 1.2
2014-Oct-14 12:33N 47°27' W 003°39'10 1.1
2014-Oct-14 03:31N 47°36' W 003°34'6 6.3
2014-Oct-14 02:33N 47°40' W 003°27'5 5.0
2014-Oct-14 01:33N 47°44' W 003°22'5 4.9
2014-Oct-14 00:33N 47°39' W 003°22'8 8.5
2014-Oct-13 23:33N 47°30' W 003°22'10 0.6
2014-Oct-13 05:22N 47°35' W 003°35'7 8.1
2014-Oct-13 04:33N 47°40' W 003°29'  

Dump ship's entire track history